Time,TemperatureF,DewpointF,PressureIn,WindDirection,WindDirectionDegrees,WindSpeedMPH,WindSpeedGustMPH,Humidity,HourlyPrecipIn,Conditions,Clouds,dailyrainin,SoftwareType,DateUTC
2017-03-24 00:01:00,40.4,29.0,30.54,SE,143,0.0,0.0,65,0.00,,,0.00,weatherlink.com 1.10,2017-03-24 04:01:00,
2017-03-24 00:16:00,40.3,29.0,30.54,SE,143,0.0,0.0,64,0.00,,,0.00,weatherlink.com 1.10,2017-03-24 04:16:00,
2017-03-24 00:31:00,40.1,29.0,30.54,SE,143,0.0,0.0,64,0.00,,,0.00,weatherlink.com 1.10,2017-03-24 04:31:00,
2017-03-24 00:46:00,39.7,30.0,30.53,SE,143,0.0,0.0,68,0.00,,,0.00,weatherlink.com 1.10,2017-03-24 04:46:00,
2017-03-24 01:01:00,39.2,30.0,30.53,SE,143,0.0,0.0,70,0.00,,,0.00,weatherlink.com 1.10,2017-03-24 05:01:00,
2017-03-24 01:16:00,39.0,31.0,30.53,SE,143,0.0,0.0,72,0.00,,,0.00,weatherlink.com 1.10,2017-03-24 05:16:00,
2017-03-24 01:31:00,38.8,30.0,30.53,SE,143,0.0,0.0,71,0.00,,,0.00,weatherlink.com 1.10,2017-03-24 05:31:00,
2017-03-24 01:46:00,38.7,30.0,30.54,SE,143,0.0,0.0,72,0.00,,,0.00,weatherlink.com 1.10,2017-03-24 05:46:00,
2017-03-24 02:01:00,38.3,30.0,30.54,SE,143,0.0,0.0,72,0.00,,,0.00,weatherlink.com 1.10,2017-03-24 06:01:00,
2017-03-24 02:16:00,37.9,31.0,30.54,SE,143,0.0,0.0,75,0.00,,,0.00,weatherlink.com 1.10,2017-03-24 06:16:00,
2017-03-24 02:31:00,37.7,31.0,30.55,SE,143,0.0,0.0,77,0.00,,,0.00,weatherlink.com 1.10,2017-03-24 06:31:00,
2017-03-24 02:46:00,37.5,31.0,30.54,SE,143,0.0,0.0,78,0.00,,,0.00,weatherlink.com 1.10,2017-03-24 06:46:00,
2017-03-24 03:01:00,37.2,31.0,30.54,SE,143,0.0,0.0,78,0.00,,,0.00,weatherlink.com 1.10,2017-03-24 07:01:00,
2017-03-24 03:16:00,36.8,31.0,30.53,SE,143,0.0,0.0,79,0.00,,,0.00,weatherlink.com 1.10,2017-03-24 07:16:00,
2017-03-24 03:31:00,36.4,30.0,30.53,SE,143,0.0,0.0,79,0.00,,,0.00,weatherlink.com 1.10,2017-03-24 07:31:00,
2017-03-24 03:46:00,36.1,31.0,30.53,SE,143,0.0,0.0,81,0.00,,,0.00,weatherlink.com 1.10,2017-03-24 07:46:00,
2017-03-24 04:01:00,35.8,30.0,30.52,SE,143,0.0,0.0,80,0.00,,,0.00,weatherlink.com 1.10,2017-03-24 08:01:00,
2017-03-24 04:16:00,35.6,31.0,30.52,SE,143,0.0,0.0,82,0.00,,,0.00,weatherlink.com 1.10,2017-03-24 08:16:00,
2017-03-24 04:31:00,35.4,31.0,30.52,SE,143,0.0,0.0,83,0.00,,,0.00,weatherlink.com 1.10,2017-03-24 08:31:00,
2017-03-24 04:46:00,35.2,31.0,30.52,SE,143,0.0,0.0,83,0.00,,,0.00,weatherlink.com 1.10,2017-03-24 08:46:00,
2017-03-24 05:01:00,35.0,31.0,30.52,SE,143,0.0,0.0,84,0.00,,,0.00,weatherlink.com 1.10,2017-03-24 09:01:00,
2017-03-24 05:16:00,34.7,30.0,30.52,SE,143,0.0,0.0,84,0.00,,,0.00,weatherlink.com 1.10,2017-03-24 09:16:00,
2017-03-24 05:31:00,34.4,30.0,30.52,SE,143,0.0,0.0,85,0.00,,,0.00,weatherlink.com 1.10,2017-03-24 09:31:00,
2017-03-24 05:46:00,34.2,31.0,30.52,SE,143,0.0,0.0,86,0.00,,,0.00,weatherlink.com 1.10,2017-03-24 09:46:00,
2017-03-24 06:01:00,34.0,30.0,30.52,SE,143,0.0,0.0,86,0.00,,,0.00,weatherlink.com 1.10,2017-03-24 10:01:00,
2017-03-24 06:16:00,33.9,31.0,30.52,SE,143,0.0,0.0,87,0.00,,,0.00,weatherlink.com 1.10,2017-03-24 10:16:00,
2017-03-24 06:31:00,33.9,31.0,30.52,SE,143,0.0,0.0,88,0.00,,,0.00,weatherlink.com 1.10,2017-03-24 10:31:00,
2017-03-24 06:46:00,34.5,32.0,30.52,SE,143,0.0,0.0,89,0.00,,,0.00,weatherlink.com 1.10,2017-03-24 10:46:00,
2017-03-24 07:01:00,35.2,32.0,30.52,SE,143,0.0,0.0,88,0.00,,,0.00,weatherlink.com 1.10,2017-03-24 11:01:00,
2017-03-24 07:16:00,36.1,32.0,30.52,SE,143,0.0,0.0,86,0.00,,,0.00,weatherlink.com 1.10,2017-03-24 11:16:00,
2017-03-24 07:31:00,36.8,32.0,30.52,SE,143,0.0,0.0,84,0.00,,,0.00,weatherlink.com 1.10,2017-03-24 11:31:00,
2017-03-24 07:46:00,37.0,32.0,30.52,SE,143,0.0,0.0,82,0.00,,,0.00,weatherlink.com 1.10,2017-03-24 11:46:00,
2017-03-24 08:01:00,37.1,32.0,30.52,SE,143,0.0,0.0,83,0.00,,,0.00,weatherlink.com 1.10,2017-03-24 12:01:00,
2017-03-24 08:16:00,37.1,32.0,30.52,SE,143,0.0,0.0,83,0.00,,,0.00,weatherlink.com 1.10,2017-03-24 12:16:00,
2017-03-24 08:32:00,37.7,33.0,30.51,SE,143,0.0,0.0,83,0.00,,,0.00,weatherlink.com 1.10,2017-03-24 12:32:00,
2017-03-24 08:46:00,39.3,34.0,30.51,SE,143,0.0,1.0,81,0.00,,,0.00,weatherlink.com 1.10,2017-03-24 12:46:00,
2017-03-24 09:02:00,41.1,35.0,30.51,SSE,157,2.0,3.0,79,0.00,,,0.00,weatherlink.com 1.10,2017-03-24 13:02:00,
2017-03-24 09:17:00,42.9,36.0,30.51,South,171,1.0,3.0,78,0.00,,,0.00,weatherlink.com 1.10,2017-03-24 13:17:00,
2017-03-24 09:32:00,44.9,38.0,30.51,South,180,1.0,3.0,78,0.00,,,0.00,weatherlink.com 1.10,2017-03-24 13:32:00,
2017-03-24 09:47:00,46.6,40.0,30.51,SSW,202,1.0,3.0,78,0.00,,,0.00,weatherlink.com 1.10,2017-03-24 13:47:00,
2017-03-24 10:02:00,48.3,41.0,30.51,SE,132,1.0,3.0,76,0.00,,,0.00,weatherlink.com 1.10,2017-03-24 14:02:00,
2017-03-24 10:17:00,50.0,42.0,30.51,SE,136,0.0,2.0,74,0.00,,,0.00,weatherlink.com 1.10,2017-03-24 14:17:00,
2017-03-24 10:32:00,51.8,42.0,30.51,SW,217,1.0,3.0,70,0.00,,,0.00,weatherlink.com 1.10,2017-03-24 14:32:00,
2017-03-24 10:47:00,53.5,43.0,30.50,South,173,0.0,3.0,67,0.00,,,0.00,weatherlink.com 1.10,2017-03-24 14:47:00,
2017-03-24 11:02:00,55.2,42.0,30.50,SSE,160,1.0,2.0,62,0.00,,,0.00,weatherlink.com 1.10,2017-03-24 15:02:00,